createdAt,value
2024-03-10T00:03:10.068Z,100215.69
2024-03-10T00:06:36.273Z,100223.09
2024-03-10T00:10:02.960Z,100219.14
2024-03-10T00:13:29.564Z,100222.83
2024-03-10T00:16:56.973Z,100222.98
2024-03-10T00:20:23.634Z,100211.25
2024-03-10T00:23:50.114Z,100212.77
2024-03-10T00:27:17.021Z,100208.79
2024-03-10T00:30:42.693Z,100213.27
2024-03-10T00:34:09.662Z,100212.91
2024-03-10T00:37:36.080Z,100219.79
2024-03-10T00:41:01.918Z,100218.58
2024-03-10T00:44:28.720Z,100215.98
2024-03-10T00:47:56.353Z,100215.28
2024-03-10T00:51:22.315Z,100218.38
2024-03-10T00:54:49.008Z,100220.27
2024-03-10T00:58:15.255Z,100217.52
2024-03-10T01:01:41.467Z,100216.14
2024-03-10T01:05:11.267Z,100214.59
2024-03-10T01:08:37.742Z,100210.46
2024-03-10T01:12:04.536Z,100208.77
2024-03-10T01:15:33.377Z,100206.06
2024-03-10T01:19:00.940Z,100206.64
2024-03-10T01:22:27.483Z,100198.62
2024-03-10T01:25:53.847Z,100201.95
2024-03-10T01:29:20.218Z,100192.73
2024-03-10T01:32:46.456Z,100186.79
2024-03-10T01:36:12.730Z,100186.21
2024-03-10T01:39:38.996Z,100176.99
2024-03-10T01:43:07.115Z,100180.66
2024-03-10T01:46:33.414Z,100181.45
2024-03-10T01:49:59.944Z,100181.50
2024-03-10T01:53:26.050Z,100176.16
2024-03-10T01:56:54.627Z,100177.71
2024-03-10T02:00:23.196Z,100175.77
2024-03-10T02:03:51.089Z,100177.88
2024-03-10T02:07:17.961Z,100176.69
2024-03-10T02:10:47.045Z,100174.09
2024-03-10T02:14:13.099Z,100176.65
2024-03-10T02:17:39.458Z,100182.02
2024-03-10T02:21:10.158Z,100175.45
2024-03-10T02:24:40.022Z,100178.27
2024-03-10T02:28:21.903Z,100177.95
2024-03-10T02:32:19.159Z,100177.85
2024-03-10T02:36:02.404Z,100171.91
2024-03-10T02:40:00.488Z,100170.12
2024-03-10T02:43:43.070Z,100164.70
2024-03-10T02:47:15.881Z,100163.86
2024-03-10T02:50:42.115Z,100165.52
2024-03-10T02:54:09.479Z,100165.15
2024-03-10T02:57:35.914Z,100176.39
2024-03-10T03:01:01.691Z,100180.05
2024-03-10T03:04:30.011Z,100182.69
2024-03-10T03:07:57.394Z,100180.77
2024-03-10T03:11:23.430Z,100183.01
2024-03-10T03:14:49.256Z,100178.98
2024-03-10T03:18:15.528Z,100177.93
2024-03-10T03:21:41.938Z,100173.55
2024-03-10T03:25:09.435Z,100173.61
2024-03-10T03:28:35.633Z,100172.59
2024-03-10T03:32:01.367Z,100170.42
2024-03-10T03:35:27.964Z,100165.48
2024-03-10T03:38:54.024Z,100161.03
2024-03-10T03:42:20.470Z,100164.19
2024-03-10T03:45:46.598Z,100162.30
2024-03-10T03:49:12.644Z,100169.04
2024-03-10T03:52:42.449Z,100166.52
2024-03-10T03:56:10.523Z,100163.83
2024-03-10T03:59:36.959Z,100159.05
2024-03-10T04:03:03.062Z,100154.27
2024-03-10T04:06:30.264Z,100155.35
2024-03-10T04:09:57.928Z,100151.59
2024-03-10T04:13:23.913Z,100149.02
2024-03-10T04:16:50.477Z,100146.60
2024-03-10T04:20:17.311Z,100145.23
2024-03-10T04:23:44.009Z,100148.81
2024-03-10T04:27:10.872Z,100143.48
2024-03-10T04:30:37.385Z,100143.32
2024-03-10T04:34:03.354Z,100142.14
2024-03-10T04:37:30.060Z,100145.23
2024-03-10T04:40:56.121Z,100146.29
2024-03-10T04:44:22.461Z,100148.31
2024-03-10T04:47:48.679Z,100153.59
2024-03-10T04:51:15.825Z,100153.64
2024-03-10T04:54:42.661Z,100159.55
2024-03-10T04:58:09.732Z,100153.38
2024-03-10T05:01:36.071Z,100148.59
2024-03-10T05:05:04.811Z,100148.36
2024-03-10T05:08:31.145Z,100156.04
2024-03-10T05:11:57.367Z,100159.56
2024-03-10T05:15:24.069Z,100170.11
2024-03-10T05:18:50.202Z,100170.02
2024-03-10T05:22:16.326Z,100168.08
2024-03-10T05:25:42.459Z,100166.96
2024-03-10T05:29:08.424Z,100166.35
2024-03-10T05:32:34.530Z,100169.73
2024-03-10T05:36:03.228Z,100166.34
2024-03-10T05:39:29.113Z,100169.20
2024-03-10T05:42:54.760Z,100164.15
2024-03-10T05:46:20.895Z,100161.44
2024-03-10T05:49:49.033Z,100164.06
2024-03-10T05:53:15.457Z,100168.09
2024-03-10T05:56:41.273Z,100168.36
2024-03-10T06:00:15.855Z,100168.55
2024-03-10T06:03:41.803Z,100171.36
2024-03-10T06:07:08.242Z,100173.07
2024-03-10T06:10:34.274Z,100177.07
2024-03-10T06:14:00.469Z,100175.71
2024-03-10T06:17:32.979Z,100177.64
2024-03-10T06:21:17.256Z,100177.80
2024-03-10T06:25:00.893Z,100174.73
2024-03-10T06:28:25.185Z,100174.96
2024-03-10T06:31:51.019Z,100179.42
2024-03-10T06:35:16.870Z,100177.65
2024-03-10T06:38:44.132Z,100179.30
2024-03-10T06:42:10.219Z,100178.44
2024-03-10T06:45:36.459Z,100178.02
2024-03-10T06:49:02.501Z,100178.48
2024-03-10T06:52:28.414Z,100177.48
2024-03-10T06:55:56.001Z,100178.71
2024-03-10T06:59:24.326Z,100172.57
2024-03-10T07:02:50.453Z,100175.98
2024-03-10T07:06:23.115Z,100180.35
2024-03-10T07:09:49.220Z,100183.72
2024-03-10T07:13:15.263Z,100184.86
2024-03-10T07:16:41.889Z,100185.30
2024-03-10T07:20:11.914Z,100183.83
2024-03-10T07:23:38.209Z,100184.27
2024-03-10T07:27:04.497Z,100183.64
2024-03-10T07:30:30.642Z,100188.64
2024-03-10T07:33:56.442Z,100189.64
2024-03-10T07:37:22.780Z,100182.56
2024-03-10T07:40:53.642Z,100185.27
2024-03-10T07:44:21.026Z,100184.29
2024-03-10T07:47:48.606Z,100191.73
2024-03-10T07:51:14.794Z,100187.33
2024-03-10T07:54:40.826Z,100183.88
2024-03-10T07:58:08.188Z,100185.89
2024-03-10T08:01:34.453Z,100187.69
2024-03-10T08:05:00.741Z,100184.08
2024-03-10T08:08:27.062Z,100179.38
2024-03-10T08:11:54.631Z,100180.05
2024-03-10T08:15:20.995Z,100180.73
2024-03-10T08:18:49.629Z,100183.91
2024-03-10T08:22:17.175Z,100183.66
2024-03-10T08:25:46.733Z,100184.50
2024-03-10T08:29:13.460Z,100178.09
2024-03-10T08:32:40.173Z,100177.23
2024-03-10T08:36:10.516Z,100178.34
2024-03-10T08:39:36.625Z,100181.41
2024-03-10T08:43:02.662Z,100177.05
2024-03-10T08:46:28.614Z,100173.84
2024-03-10T08:49:54.583Z,100175.98
2024-03-10T08:53:23.294Z,100179.07
2024-03-10T08:56:51.080Z,100176.14
2024-03-10T09:00:19.291Z,100169.38
2024-03-10T09:03:45.092Z,100171.88
2024-03-10T09:07:11.323Z,100175.31
2024-03-10T09:10:44.608Z,100172.75
2024-03-10T09:14:20.636Z,100168.10
2024-03-10T09:17:47.382Z,100171.89
2024-03-10T09:21:15.516Z,100168.08
2024-03-10T09:24:44.090Z,100163.06
2024-03-10T09:28:10.557Z,100161.16
2024-03-10T09:31:38.941Z,100155.82
2024-03-10T09:35:05.331Z,100158.54
2024-03-10T09:38:31.488Z,100151.29
2024-03-10T09:41:58.572Z,100150.59
2024-03-10T09:45:27.603Z,100149.30
2024-03-10T09:48:54.095Z,100147.27
2024-03-10T09:52:21.051Z,100144.66
2024-03-10T09:55:50.006Z,100145.70
2024-03-10T09:59:25.804Z,100148.45
2024-03-10T10:02:54.656Z,100149.60
2024-03-10T10:06:24.467Z,100151.58
2024-03-10T10:10:00.169Z,100150.10
2024-03-10T10:13:28.289Z,100149.11
2024-03-10T10:16:57.876Z,100152.41
2024-03-10T10:20:26.707Z,100152.47
2024-03-10T10:23:53.730Z,100154.29
2024-03-10T10:27:19.753Z,100150.16
2024-03-10T10:30:46.194Z,100141.58
2024-03-10T10:34:16.972Z,100141.13
2024-03-10T10:37:48.428Z,100137.92
2024-03-10T10:41:15.081Z,100139.02
2024-03-10T10:44:42.296Z,100139.91
2024-03-10T10:48:11.135Z,100136.92
2024-03-10T10:51:37.539Z,100130.41
2024-03-10T10:55:03.673Z,100122.41
2024-03-10T10:58:36.467Z,100116.23
2024-03-10T11:02:21.419Z,100112.80
2024-03-10T11:06:25.562Z,100114.23
2024-03-10T11:09:52.375Z,100110.39
2024-03-10T11:13:20.252Z,100110.77
2024-03-10T11:16:47.274Z,100107.66
2024-03-10T11:20:15.054Z,100101.90
2024-03-10T11:23:49.544Z,100096.61
2024-03-10T11:27:19.954Z,100090.57
2024-03-10T11:30:52.813Z,100080.17
2024-03-10T11:34:19.916Z,100072.06
2024-03-10T11:37:47.119Z,100067.30
2024-03-10T11:41:13.584Z,100060.77
2024-03-10T11:44:39.824Z,100051.73
2024-03-10T11:48:07.891Z,100052.86
2024-03-10T11:51:36.533Z,100054.39
2024-03-10T11:55:13.170Z,100046.58
2024-03-10T11:58:40.051Z,100039.48
2024-03-10T12:02:06.473Z,100042.81
2024-03-10T12:05:33.246Z,100033.16
2024-03-10T12:08:59.774Z,100038.45
2024-03-10T12:12:33.966Z,100029.48
2024-03-10T12:16:04.335Z,100025.17
2024-03-10T12:19:31.057Z,100029.07
2024-03-10T12:22:59.868Z,100029.17
2024-03-10T12:26:30.235Z,100024.94
2024-03-10T12:29:57.879Z,100020.08
2024-03-10T12:33:24.042Z,100021.46
2024-03-10T12:36:50.032Z,100022.45
2024-03-10T12:40:17.814Z,100023.35
2024-03-10T12:43:45.793Z,100017.56
2024-03-10T12:47:12.629Z,100013.96
2024-03-10T12:50:41.055Z,100016.63
2024-03-10T12:54:08.302Z,100012.98
2024-03-10T12:57:34.359Z,100012.50
2024-03-10T13:01:00.060Z,100012.83
2024-03-10T13:04:25.754Z,100016.10
2024-03-10T13:07:51.938Z,100016.43
2024-03-10T13:11:19.202Z,100022.38
2024-03-10T13:14:45.470Z,100021.80
2024-03-10T13:18:14.239Z,100021.89
2024-03-10T13:21:41.436Z,100023.46
2024-03-10T13:25:09.425Z,100023.08
2024-03-10T13:28:36.010Z,100014.02
2024-03-10T13:32:02.642Z,100013.45
2024-03-10T13:35:29.049Z,100008.34
2024-03-10T13:38:55.344Z,100006.02
2024-03-10T13:42:21.302Z,100004.77
2024-03-10T13:45:47.235Z,99999.80
2024-03-10T13:49:14.078Z,99993.17
2024-03-10T13:52:40.516Z,99983.34
2024-03-10T13:56:07.080Z,99982.05
2024-03-10T13:59:33.541Z,99976.13
2024-03-10T14:03:03.520Z,99980.89
2024-03-10T14:06:32.764Z,99976.01
2024-03-10T14:09:59.274Z,99972.03
2024-03-10T14:13:25.297Z,99968.02
2024-03-10T14:16:52.341Z,99966.88
2024-03-10T14:20:20.224Z,99963.50
2024-03-10T14:23:46.615Z,99965.84
2024-03-10T14:27:13.012Z,99960.95
2024-03-10T14:30:41.628Z,99951.20
2024-03-10T14:34:07.584Z,99951.84
2024-03-10T14:37:36.126Z,99949.77
2024-03-10T14:41:02.740Z,99954.82
2024-03-10T14:44:28.910Z,99952.76
2024-03-10T14:47:56.191Z,99955.84
2024-03-10T14:51:23.513Z,99951.23
2024-03-10T14:54:49.749Z,99949.02
2024-03-10T14:58:16.003Z,99946.20
2024-03-10T15:01:44.811Z,99944.06
2024-03-10T15:05:14.358Z,99940.20
2024-03-10T15:08:40.803Z,99938.98
2024-03-10T15:12:08.480Z,99944.75
2024-03-10T15:15:34.239Z,99939.48
2024-03-10T15:19:00.476Z,99940.61
2024-03-10T15:22:26.802Z,99940.29
2024-03-10T15:25:55.580Z,99943.30
2024-03-10T15:29:23.805Z,99943.74
2024-03-10T15:32:51.846Z,99951.99
2024-03-10T15:36:18.732Z,99947.57
2024-03-10T15:39:46.386Z,99950.30
2024-03-10T15:43:14.266Z,99948.52
2024-03-10T15:46:41.064Z,99939.61
2024-03-10T15:50:11.165Z,99941.27
2024-03-10T15:53:37.582Z,99938.70
2024-03-10T15:57:05.767Z,99937.36
2024-03-10T16:00:32.182Z,99947.05
2024-03-10T16:04:01.942Z,99951.08
2024-03-10T16:07:28.161Z,99952.14
2024-03-10T16:10:54.709Z,99947.22
2024-03-10T16:14:21.660Z,99953.40
2024-03-10T16:17:48.341Z,99954.53
2024-03-10T16:21:19.541Z,99954.44
2024-03-10T16:24:46.786Z,99953.64
2024-03-10T16:28:12.947Z,99952.98
2024-03-10T16:31:39.156Z,99951.41
2024-03-10T16:35:05.609Z,99959.23
2024-03-10T16:38:31.757Z,99958.48
2024-03-10T16:41:58.643Z,99963.90
2024-03-10T16:45:24.947Z,99964.30
2024-03-10T16:48:51.111Z,99965.80
2024-03-10T16:52:19.096Z,99964.01
2024-03-10T16:55:49.045Z,99965.44
2024-03-10T16:59:18.702Z,99968.33
2024-03-10T17:02:46.119Z,99972.80
2024-03-10T17:06:13.600Z,99970.39
2024-03-10T17:09:40.144Z,99975.84
2024-03-10T17:13:09.134Z,99971.56
2024-03-10T17:16:35.751Z,99977.00
2024-03-10T17:20:02.662Z,99979.95
2024-03-10T17:23:29.205Z,99984.78
2024-03-10T17:26:55.812Z,99982.09
2024-03-10T17:30:22.268Z,99988.08
2024-03-10T17:33:49.173Z,99987.36
2024-03-10T17:37:16.546Z,99988.06
2024-03-10T17:40:42.714Z,99997.74
2024-03-10T17:44:09.055Z,100003.83
2024-03-10T17:47:37.114Z,100005.52
2024-03-10T17:51:06.024Z,100006.55
2024-03-10T17:54:34.105Z,100003.77
2024-03-10T17:58:01.772Z,99996.11
2024-03-10T18:01:27.719Z,99999.12
2024-03-10T18:04:54.757Z,100002.39
2024-03-10T18:08:22.238Z,99997.68
2024-03-10T18:11:50.118Z,100001.59
2024-03-10T18:15:20.701Z,99997.85
2024-03-10T18:18:48.678Z,99998.99
2024-03-10T18:22:17.037Z,99992.84
2024-03-10T18:25:45.071Z,99991.35
2024-03-10T18:29:14.414Z,99991.34
2024-03-10T18:32:42.709Z,99984.50
2024-03-10T18:36:10.644Z,99985.43
2024-03-10T18:39:37.960Z,99977.72
2024-03-10T18:43:05.483Z,99975.02
2024-03-10T18:46:33.204Z,99973.70
2024-03-10T18:49:59.083Z,99975.98
2024-03-10T18:53:25.601Z,99975.69
2024-03-10T18:56:52.958Z,99976.00
2024-03-10T19:00:19.129Z,99975.47
2024-03-10T19:03:48.418Z,99973.05
2024-03-10T19:07:17.007Z,99974.69
2024-03-10T19:10:43.000Z,99974.65
2024-03-10T19:14:09.280Z,99974.48
2024-03-10T19:17:35.516Z,99975.36
2024-03-10T19:21:04.374Z,99982.92
2024-03-10T19:24:31.071Z,99979.46
2024-03-10T19:27:56.843Z,99973.91
2024-03-10T19:31:22.800Z,99977.82
2024-03-10T19:34:48.693Z,99980.05
2024-03-10T19:38:14.772Z,99986.16
2024-03-10T19:41:41.273Z,99992.81
2024-03-10T19:45:08.656Z,99992.73
2024-03-10T19:48:34.731Z,99998.14
2024-03-10T19:52:00.882Z,99994.91
2024-03-10T19:55:27.017Z,99996.08
2024-03-10T19:58:55.298Z,99993.47
2024-03-10T20:02:21.147Z,99993.59
2024-03-10T20:05:47.321Z,99992.98
2024-03-10T20:09:18.031Z,99990.98
2024-03-10T20:12:44.053Z,99986.58
2024-03-10T20:16:10.837Z,99989.23
2024-03-10T20:19:36.873Z,99981.15
2024-03-10T20:23:02.995Z,99983.27
2024-03-10T20:26:28.824Z,99982.77
2024-03-10T20:29:54.497Z,99980.21
2024-03-10T20:33:20.334Z,99971.65
2024-03-10T20:36:46.501Z,99972.07
2024-03-10T20:40:14.467Z,99968.86
2024-03-10T20:43:40.401Z,99967.91
2024-03-10T20:47:07.691Z,99959.75
2024-03-10T20:50:34.473Z,99959.23
2024-03-10T20:54:00.215Z,99957.55
2024-03-10T20:57:25.919Z,99951.34
2024-03-10T21:00:55.956Z,99951.83
2024-03-10T21:04:22.062Z,99949.38
2024-03-10T21:07:48.343Z,99949.83
2024-03-10T21:11:14.841Z,99944.63
2024-03-10T21:14:42.155Z,99941.33
2024-03-10T21:18:09.577Z,99945.41
2024-03-10T21:21:35.988Z,99945.50
2024-03-10T21:25:02.196Z,99945.25
2024-03-10T21:28:29.673Z,99946.05
2024-03-10T21:31:55.551Z,99941.23
2024-03-10T21:35:24.587Z,99947.08
2024-03-10T21:38:51.998Z,99941.52
2024-03-10T21:42:19.523Z,99942.14
2024-03-10T21:45:46.656Z,99940.55
2024-03-10T21:49:12.864Z,99931.36
2024-03-10T21:52:39.384Z,99932.02
2024-03-10T21:56:06.370Z,99932.85
2024-03-10T21:59:32.164Z,99935.95
2024-03-10T22:02:58.491Z,99940.97
2024-03-10T22:06:24.100Z,99937.77
2024-03-10T22:09:50.268Z,99939.98
2024-03-10T22:13:15.778Z,99943.14
2024-03-10T22:16:41.945Z,99943.59
2024-03-10T22:20:13.878Z,99945.55
2024-03-10T22:23:39.644Z,99944.05
2024-03-10T22:27:06.323Z,99936.55
2024-03-10T22:30:33.155Z,99937.98
2024-03-10T22:33:58.992Z,99940.33
2024-03-10T22:37:25.760Z,99940.54
2024-03-10T22:40:53.200Z,99942.59
2024-03-10T22:44:19.883Z,99941.17
2024-03-10T22:47:47.224Z,99937.89
2024-03-10T22:51:13.152Z,99943.25
2024-03-10T22:54:39.294Z,99938.56
2024-03-10T22:58:06.008Z,99940.97
2024-03-10T23:01:33.951Z,99940.77
2024-03-10T23:05:01.513Z,99937.29
2024-03-10T23:08:27.372Z,99939.72
2024-03-10T23:11:53.996Z,99939.39
2024-03-10T23:15:22.380Z,99938.73
2024-03-10T23:18:51.240Z,99939.69
2024-03-10T23:22:18.001Z,99937.69
2024-03-10T23:25:44.048Z,99936.30
2024-03-10T23:29:10.067Z,99935.58
2024-03-10T23:32:36.290Z,99935.35
2024-03-10T23:36:04.493Z,99934.48
2024-03-10T23:39:32.446Z,99925.10
2024-03-10T23:42:58.823Z,99918.46
2024-03-10T23:46:25.221Z,99917.90
2024-03-10T23:49:50.808Z,99913.01
2024-03-10T23:53:16.899Z,99912.10
2024-03-10T23:56:42.924Z,99910.09
